createdAt,value
2017-01-02T00:00:38.352Z,0
2017-01-02T00:01:38.414Z,0
2017-01-02T00:02:38.475Z,0
2017-01-02T00:03:38.551Z,0
2017-01-02T00:04:38.730Z,0
2017-01-02T00:05:38.645Z,0
2017-01-02T00:06:38.703Z,0
2017-01-02T00:07:38.750Z,0
2017-01-02T00:08:38.818Z,0
2017-01-02T00:09:38.875Z,0
2017-01-02T00:10:38.929Z,0
2017-01-02T00:11:38.985Z,0
2017-01-02T00:12:39.045Z,0
2017-01-02T00:13:39.108Z,0
2017-01-02T00:14:39.149Z,0
2017-01-02T00:15:39.214Z,0
2017-01-02T00:16:39.266Z,0
2017-01-02T00:17:39.320Z,0
2017-01-02T00:18:39.379Z,0
2017-01-02T00:19:39.440Z,0
2017-01-02T00:20:39.498Z,0
2017-01-02T00:21:39.556Z,0
2017-01-02T00:22:39.635Z,0
2017-01-02T00:23:39.668Z,0
2017-01-02T00:24:39.923Z,0
2017-01-02T00:25:54.708Z,0
2017-01-02T00:26:40.039Z,0
2017-01-02T00:27:39.905Z,0
2017-01-02T00:28:39.953Z,0
2017-01-02T00:29:40.003Z,0
2017-01-02T00:30:40.068Z,0
2017-01-02T00:31:40.118Z,0
2017-01-02T00:32:40.165Z,0
2017-01-02T00:33:40.223Z,0
2017-01-02T00:34:40.301Z,0
2017-01-02T00:35:40.337Z,0
2017-01-02T00:36:40.407Z,0
2017-01-02T00:37:40.444Z,0
2017-01-02T00:38:40.518Z,0
2017-01-02T00:39:40.564Z,0
2017-01-02T00:40:40.637Z,0
2017-01-02T00:41:40.694Z,0
2017-01-02T00:42:40.735Z,0
2017-01-02T00:43:40.832Z,0
2017-01-02T00:44:40.853Z,0
2017-01-02T00:45:40.895Z,0
2017-01-02T00:46:40.967Z,0
2017-01-02T00:47:41.012Z,0
2017-01-02T00:48:41.082Z,0
2017-01-02T00:49:41.139Z,0
2017-01-02T00:50:41.189Z,0
2017-01-02T00:51:41.466Z,0
2017-01-02T00:52:41.498Z,0
2017-01-02T00:53:41.375Z,0
2017-01-02T00:54:41.412Z,0
2017-01-02T00:55:41.470Z,0
2017-01-02T00:56:41.528Z,0
2017-01-02T00:57:41.593Z,0
2017-01-02T00:58:41.641Z,0
2017-01-02T00:59:41.690Z,0
2017-01-02T01:00:41.761Z,0
2017-01-02T01:01:41.807Z,0
2017-01-02T01:02:41.871Z,0
2017-01-02T01:03:41.936Z,0
2017-01-02T01:04:41.995Z,0
2017-01-02T01:05:42.032Z,0
2017-01-02T01:06:42.100Z,0
2017-01-02T01:07:42.146Z,0
2017-01-02T01:08:42.204Z,0
2017-01-02T01:09:42.256Z,0
2017-01-02T01:10:42.314Z,0
2017-01-02T01:11:42.370Z,0
2017-01-02T01:12:42.434Z,0
2017-01-02T01:13:42.522Z,0
2017-01-02T01:14:42.563Z,0
2017-01-02T01:15:42.589Z,0
2017-01-02T01:16:42.660Z,0
2017-01-02T01:17:42.705Z,0
2017-01-02T01:18:42.763Z,0
2017-01-02T01:19:42.827Z,0
2017-01-02T01:20:42.887Z,0
2017-01-02T01:21:42.925Z,0
2017-01-02T01:22:43.007Z,0
2017-01-02T01:23:43.069Z,0
2017-01-02T01:24:43.102Z,0
2017-01-02T01:25:43.164Z,0
2017-01-02T01:26:43.223Z,0
2017-01-02T01:27:43.271Z,0
2017-01-02T01:28:43.322Z,0
2017-01-02T01:29:43.392Z,0
2017-01-02T01:30:43.446Z,0
2017-01-02T01:31:43.503Z,0
2017-01-02T01:32:43.586Z,0
2017-01-02T01:33:43.601Z,0
2017-01-02T01:34:43.670Z,0
2017-01-02T01:35:43.727Z,0
2017-01-02T01:36:43.776Z,0
2017-01-02T01:37:43.844Z,0
2017-01-02T01:38:43.895Z,0
2017-01-02T01:39:43.948Z,0
2017-01-02T01:40:44.021Z,0
2017-01-02T01:41:44.063Z,0
2017-01-02T01:42:44.129Z,0
2017-01-02T01:43:44.184Z,0
2017-01-02T01:44:44.221Z,0
2017-01-02T01:45:44.297Z,0
2017-01-02T01:46:44.349Z,0
2017-01-02T01:47:44.414Z,0
2017-01-02T01:48:44.455Z,0
2017-01-02T01:49:44.511Z,0
2017-01-02T01:50:44.578Z,0
2017-01-02T01:51:44.637Z,0
2017-01-02T01:52:44.705Z,0
2017-01-02T01:53:44.767Z,0
2017-01-02T01:54:44.792Z,0
2017-01-02T01:55:44.850Z,0
2017-01-02T01:56:44.922Z,0
2017-01-02T01:57:44.969Z,0
2017-01-02T01:58:45.017Z,0
2017-01-02T01:59:45.072Z,0
2017-01-02T02:00:45.132Z,0
2017-01-02T02:01:45.188Z,0
2017-01-02T02:02:45.254Z,0
2017-01-02T02:03:45.301Z,0
2017-01-02T02:04:45.362Z,0
2017-01-02T02:05:45.422Z,0
2017-01-02T02:06:45.478Z,0
2017-01-02T02:07:45.535Z,0
2017-01-02T02:08:45.594Z,0
2017-01-02T02:09:45.636Z,0
2017-01-02T02:10:45.694Z,0
2017-01-02T02:11:45.791Z,0
2017-01-02T02:12:45.811Z,0
2017-01-02T02:13:45.865Z,0
2017-01-02T02:14:45.931Z,0
2017-01-02T02:15:45.982Z,0
2017-01-02T02:16:46.033Z,0
2017-01-02T02:17:46.093Z,0
2017-01-02T02:18:46.164Z,0
2017-01-02T02:19:46.214Z,0
2017-01-02T02:20:46.270Z,0
2017-01-02T02:21:46.315Z,0
2017-01-02T02:22:46.367Z,0
2017-01-02T02:23:46.470Z,0
2017-01-02T02:24:46.496Z,0
2017-01-02T02:25:46.538Z,0
2017-01-02T02:26:46.607Z,0
2017-01-02T02:27:46.662Z,0
2017-01-02T02:28:46.714Z,0
2017-01-02T02:29:46.769Z,0
2017-01-02T02:30:46.841Z,0
2017-01-02T02:31:46.888Z,0
2017-01-02T02:32:46.949Z,0
2017-01-02T02:33:46.997Z,0
2017-01-02T02:34:47.440Z,0
2017-01-02T02:35:47.102Z,0
2017-01-02T02:36:47.171Z,0
2017-01-02T02:37:47.227Z,0
2017-01-02T02:38:47.270Z,0
2017-01-02T02:39:47.337Z,0
2017-01-02T02:40:47.391Z,0
2017-01-02T02:41:47.462Z,0
2017-01-02T02:42:47.506Z,0
2017-01-02T02:43:47.563Z,0
2017-01-02T02:44:47.624Z,0
2017-01-02T02:45:47.679Z,0
2017-01-02T02:46:47.729Z,0
2017-01-02T02:47:47.783Z,0
2017-01-02T02:48:47.840Z,0
2017-01-02T02:49:47.891Z,0
2017-01-02T02:50:47.960Z,0
2017-01-02T02:51:48.013Z,0
2017-01-02T02:52:48.077Z,0
2017-01-02T02:53:48.128Z,0
2017-01-02T02:54:48.195Z,0
2017-01-02T02:55:48.256Z,0
2017-01-02T02:56:48.307Z,0
2017-01-02T02:57:48.357Z,0
2017-01-02T02:58:48.411Z,0
2017-01-02T02:59:48.465Z,0
2017-01-02T03:00:48.525Z,0
2017-01-02T03:01:48.572Z,0
2017-01-02T03:02:48.630Z,0
2017-01-02T03:03:48.679Z,0
2017-01-02T03:04:48.746Z,0
2017-01-02T03:05:48.815Z,0
2017-01-02T03:06:48.863Z,0
2017-01-02T03:07:48.917Z,0
2017-01-02T03:08:49.172Z,0
2017-01-02T03:09:49.043Z,0
2017-01-02T03:10:49.073Z,0
2017-01-02T03:11:49.149Z,0
2017-01-02T03:12:49.205Z,0
2017-01-02T03:13:49.248Z,0
2017-01-02T03:14:49.313Z,0
2017-01-02T03:15:49.749Z,0
2017-01-02T03:16:49.429Z,0
2017-01-02T03:17:49.479Z,0
2017-01-02T03:18:49.537Z,0
2017-01-02T03:19:49.596Z,0
2017-01-02T03:20:49.653Z,0
2017-01-02T03:21:49.711Z,0
2017-01-02T03:22:49.765Z,0
2017-01-02T03:23:49.822Z,0
2017-01-02T03:24:49.897Z,0
2017-01-02T03:25:49.935Z,0
2017-01-02T03:26:49.982Z,0
2017-01-02T03:27:50.052Z,0
2017-01-02T03:28:50.099Z,0
2017-01-02T03:29:50.161Z,0
2017-01-02T03:30:50.207Z,0
2017-01-02T03:31:50.267Z,0
2017-01-02T03:32:50.328Z,0
2017-01-02T03:33:50.389Z,0
2017-01-02T03:34:50.455Z,0
2017-01-02T03:35:50.523Z,0
2017-01-02T03:36:50.555Z,0
2017-01-02T03:37:50.605Z,0
2017-01-02T03:38:50.682Z,0
2017-01-02T03:39:50.745Z,0
2017-01-02T03:40:50.787Z,0
2017-01-02T03:41:50.846Z,0
2017-01-02T03:42:50.903Z,0
2017-01-02T03:43:50.951Z,0
2017-01-02T03:44:51.052Z,0
2017-01-02T03:45:51.075Z,0
2017-01-02T03:46:51.134Z,0
2017-01-02T03:47:51.185Z,0
2017-01-02T03:48:51.246Z,0
2017-01-02T03:49:51.332Z,0
2017-01-02T03:50:51.366Z,0
2017-01-02T03:51:51.404Z,0
2017-01-02T03:52:51.488Z,0
2017-01-02T03:53:51.535Z,0
2017-01-02T03:54:51.585Z,0
2017-01-02T03:55:51.649Z,0
2017-01-02T03:56:51.705Z,0
2017-01-02T03:57:51.761Z,0
2017-01-02T03:58:51.821Z,0
2017-01-02T03:59:51.869Z,0
2017-01-02T04:00:51.914Z,0
2017-01-02T04:01:51.990Z,0
2017-01-02T04:02:52.044Z,0
2017-01-02T04:03:52.105Z,0
2017-01-02T04:04:52.147Z,0
2017-01-02T04:05:52.198Z,0
2017-01-02T04:06:52.286Z,0
2017-01-02T04:07:52.320Z,0
2017-01-02T04:08:52.382Z,0
2017-01-02T04:09:52.442Z,0
2017-01-02T04:10:52.532Z,0
2017-01-02T04:11:52.538Z,0
2017-01-02T04:12:52.604Z,0
2017-01-02T04:13:52.663Z,0
2017-01-02T04:14:52.711Z,0
2017-01-02T04:15:52.777Z,0
2017-01-02T04:16:52.831Z,0
2017-01-02T04:17:52.881Z,0
2017-01-02T04:18:52.937Z,0
2017-01-02T04:19:52.997Z,0
2017-01-02T04:20:53.065Z,0
2017-01-02T04:21:53.111Z,0
2017-01-02T04:22:53.158Z,0
2017-01-02T04:23:53.228Z,0
2017-01-02T04:24:53.287Z,0
2017-01-02T04:25:53.347Z,0
2017-01-02T04:26:53.382Z,0
2017-01-02T04:27:53.444Z,0
2017-01-02T04:28:53.508Z,0
2017-01-02T04:29:53.543Z,0
2017-01-02T04:30:53.610Z,0
2017-01-02T04:31:53.659Z,0
2017-01-02T04:32:53.722Z,0
2017-01-02T04:33:53.780Z,0
2017-01-02T04:34:53.839Z,0
2017-01-02T04:35:53.898Z,0
2017-01-02T04:36:53.947Z,0
2017-01-02T04:37:53.999Z,0
2017-01-02T04:38:54.069Z,0
2017-01-02T04:39:54.123Z,0
2017-01-02T04:40:54.173Z,0
2017-01-02T04:41:54.222Z,0
2017-01-02T04:42:54.281Z,0
2017-01-02T04:43:54.337Z,0
2017-01-02T04:44:54.398Z,0
2017-01-02T04:45:54.456Z,0
2017-01-02T04:46:54.518Z,0
2017-01-02T04:47:54.575Z,0
2017-01-02T04:48:54.627Z,0
2017-01-02T04:49:54.681Z,0
2017-01-02T04:50:54.746Z,0
2017-01-02T04:51:54.800Z,0
2017-01-02T04:52:54.879Z,0
2017-01-02T04:53:54.913Z,0
2017-01-02T04:54:54.970Z,0
2017-01-02T04:55:55.021Z,0
2017-01-02T04:56:55.095Z,0
2017-01-02T04:57:55.139Z,0
2017-01-02T04:58:55.192Z,0
2017-01-02T04:59:55.254Z,0
2017-01-02T05:00:55.322Z,0
2017-01-02T05:01:55.365Z,0
2017-01-02T05:02:55.420Z,0
2017-01-02T05:03:55.490Z,0
2017-01-02T05:04:55.531Z,0
2017-01-02T05:05:55.585Z,0
2017-01-02T05:06:55.650Z,0
2017-01-02T05:07:55.713Z,0
2017-01-02T05:08:55.770Z,0
2017-01-02T05:09:55.821Z,0
2017-01-02T05:10:55.870Z,0
2017-01-02T05:11:55.942Z,0
2017-01-02T05:12:55.994Z,0
2017-01-02T05:13:56.051Z,0
2017-01-02T05:14:56.098Z,0
2017-01-02T05:15:56.164Z,0
2017-01-02T05:16:56.247Z,0
2017-01-02T05:17:56.264Z,0
2017-01-02T05:18:56.327Z,0
2017-01-02T05:19:56.394Z,0
2017-01-02T05:20:56.439Z,0
2017-01-02T05:21:56.484Z,0
2017-01-02T05:22:56.540Z,0
2017-01-02T05:23:56.619Z,0
2017-01-02T05:24:56.658Z,0
2017-01-02T05:25:56.711Z,0
2017-01-02T05:26:56.779Z,0
2017-01-02T05:27:56.823Z,0
2017-01-02T05:28:56.897Z,0
2017-01-02T05:29:56.950Z,0
2017-01-02T05:30:56.998Z,0
2017-01-02T05:31:57.055Z,0
2017-01-02T05:32:57.103Z,0
2017-01-02T05:33:57.172Z,0
2017-01-02T05:34:57.234Z,0
2017-01-02T05:35:57.284Z,0
2017-01-02T05:36:57.346Z,0
2017-01-02T05:37:57.387Z,0
2017-01-02T05:38:57.464Z,0
2017-01-02T05:39:57.509Z,0
2017-01-02T05:40:57.556Z,0
2017-01-02T05:41:57.628Z,0
2017-01-02T05:42:57.677Z,0
2017-01-02T05:43:57.739Z,0
2017-01-02T05:44:57.789Z,0
2017-01-02T05:45:57.855Z,0
2017-01-02T05:46:57.898Z,0
2017-01-02T05:47:57.965Z,0
2017-01-02T05:48:58.016Z,0
2017-01-02T05:49:58.077Z,0
2017-01-02T05:50:58.137Z,0
2017-01-02T05:51:58.178Z,0
2017-01-02T05:52:58.242Z,0
2017-01-02T05:53:58.292Z,0
2017-01-02T05:54:58.357Z,0
2017-01-02T05:55:58.406Z,0
2017-01-02T05:56:58.468Z,0
2017-01-02T05:57:58.536Z,0
2017-01-02T05:58:58.572Z,0
2017-01-02T05:59:58.651Z,0
2017-01-02T06:00:58.699Z,0
2017-01-02T06:01:58.745Z,0
2017-01-02T06:02:58.808Z,0
2017-01-02T06:03:58.858Z,0
2017-01-02T06:04:58.917Z,0
2017-01-02T06:05:58.977Z,0
2017-01-02T06:06:59.043Z,0
2017-01-02T06:07:59.128Z,0
2017-01-02T06:08:59.144Z,0
2017-01-02T06:09:59.206Z,0
2017-01-02T06:10:59.262Z,0
2017-01-02T06:11:59.317Z,0
2017-01-02T06:12:59.381Z,0
2017-01-02T06:13:59.424Z,0
2017-01-02T06:14:59.491Z,0
2017-01-02T06:15:59.542Z,0
2017-01-02T06:16:59.594Z,0
2017-01-02T06:17:59.661Z,0
2017-01-02T06:18:59.709Z,0
2017-01-02T06:19:59.768Z,0
2017-01-02T06:20:59.831Z,0
2017-01-02T06:21:59.899Z,0
2017-01-02T06:22:59.932Z,0
2017-01-02T06:23:59.992Z,0
2017-01-02T06:25:00.049Z,0
2017-01-02T06:26:00.100Z,0
2017-01-02T06:27:00.157Z,0
2017-01-02T06:28:00.209Z,0
2017-01-02T06:29:00.275Z,0
2017-01-02T06:30:00.316Z,0
2017-01-02T06:31:00.391Z,0
2017-01-02T06:32:00.439Z,0
2017-01-02T06:33:00.502Z,0
2017-01-02T06:34:00.556Z,0
2017-01-02T06:35:00.601Z,0
2017-01-02T06:36:00.660Z,0
2017-01-02T06:37:00.745Z,0
2017-01-02T06:38:00.779Z,0
2017-01-02T06:39:00.851Z,0
2017-01-02T06:40:01.282Z,0
2017-01-02T06:41:00.945Z,0
2017-01-02T06:42:01.006Z,0
2017-01-02T06:43:01.057Z,0
2017-01-02T06:44:01.110Z,0
2017-01-02T06:45:01.177Z,0
2017-01-02T06:46:01.223Z,0
2017-01-02T06:47:01.288Z,0
2017-01-02T06:48:01.329Z,0
2017-01-02T06:49:01.407Z,0
2017-01-02T06:50:01.455Z,0
2017-01-02T06:51:01.507Z,0
2017-01-02T06:52:01.572Z,0
2017-01-02T06:53:01.623Z,0
2017-01-02T06:54:01.682Z,0
2017-01-02T06:55:01.738Z,0
2017-01-02T06:56:01.781Z,0
2017-01-02T06:57:01.835Z,0
2017-01-02T06:58:01.905Z,0
2017-01-02T06:59:01.966Z,0
2017-01-02T07:00:02.019Z,0
2017-01-02T07:01:02.086Z,0
2017-01-02T07:02:02.146Z,0
2017-01-02T07:03:02.197Z,0
2017-01-02T07:04:02.236Z,0
2017-01-02T07:05:02.296Z,0
2017-01-02T07:06:02.358Z,0
2017-01-02T07:07:02.413Z,0
2017-01-02T07:08:02.468Z,0
2017-01-02T07:09:02.526Z,5
2017-01-02T07:10:02.582Z,5
2017-01-02T07:11:02.649Z,5
2017-01-02T07:12:02.694Z,5
2017-01-02T07:13:02.751Z,5
2017-01-02T07:14:02.798Z,5
2017-01-02T07:15:02.863Z,5
2017-01-02T07:16:02.935Z,5
2017-01-02T07:17:02.979Z,5
2017-01-02T07:18:03.041Z,5
2017-01-02T07:19:03.089Z,5
2017-01-02T07:20:03.154Z,5
2017-01-02T07:21:03.587Z,10
2017-01-02T07:22:03.266Z,10
2017-01-02T07:23:03.317Z,10
2017-01-02T07:24:03.381Z,10
2017-01-02T07:25:03.437Z,10
2017-01-02T07:26:03.502Z,10
2017-01-02T07:27:03.557Z,10
2017-01-02T07:28:03.605Z,10
2017-01-02T07:29:03.672Z,10
2017-01-02T07:30:03.718Z,15
2017-01-02T07:31:03.785Z,15
2017-01-02T07:32:03.861Z,15
2017-01-02T07:33:03.885Z,15
2017-01-02T07:34:03.953Z,15
2017-01-02T07:35:04.016Z,15
2017-01-02T07:36:04.084Z,15
2017-01-02T07:37:04.138Z,15
2017-01-02T07:38:04.175Z,15
2017-01-02T07:39:04.240Z,15
2017-01-02T07:40:04.287Z,15
2017-01-02T07:41:04.347Z,15
2017-01-02T07:42:04.411Z,20
2017-01-02T07:43:04.462Z,20
2017-01-02T07:44:04.523Z,20
2017-01-02T07:45:04.583Z,20
2017-01-02T07:46:04.637Z,20
2017-01-02T07:47:04.686Z,20
2017-01-02T07:48:04.748Z,20
2017-01-02T07:49:04.801Z,20
2017-01-02T07:50:04.858Z,20
2017-01-02T07:51:04.917Z,20
2017-01-02T07:52:04.975Z,20
2017-01-02T07:53:05.043Z,20
2017-01-02T07:54:05.093Z,25
2017-01-02T07:55:05.155Z,25
2017-01-02T07:56:05.206Z,25
2017-01-02T07:57:05.264Z,25
2017-01-02T07:58:05.328Z,25
2017-01-02T07:59:05.386Z,25
2017-01-02T08:00:05.443Z,25
2017-01-02T08:01:05.505Z,25
2017-01-02T08:02:05.550Z,25
2017-01-02T08:03:05.609Z,25
2017-01-02T08:04:05.664Z,25
2017-01-02T08:05:05.729Z,25
2017-01-02T08:06:05.794Z,25
2017-01-02T08:07:05.852Z,30
2017-01-02T08:08:05.908Z,25
2017-01-02T08:09:05.966Z,30
2017-01-02T08:10:06.012Z,30
2017-01-02T08:11:06.065Z,30
2017-01-02T08:12:06.132Z,30
2017-01-02T08:13:06.178Z,30
2017-01-02T08:14:06.241Z,30
2017-01-02T08:15:06.296Z,30
2017-01-02T08:16:06.356Z,30
2017-01-02T08:17:06.412Z,30
2017-01-02T08:18:06.474Z,30
2017-01-02T08:19:06.549Z,30
2017-01-02T08:20:06.583Z,30
2017-01-02T08:21:06.653Z,30
2017-01-02T08:22:06.688Z,30
2017-01-02T08:23:06.762Z,30
2017-01-02T08:24:06.818Z,30
2017-01-02T08:25:06.870Z,35
2017-01-02T08:26:06.928Z,35
2017-01-02T08:27:07.000Z,35
2017-01-02T08:28:07.040Z,35
2017-01-02T08:29:07.080Z,35
2017-01-02T08:30:07.164Z,35
2017-01-02T08:31:07.214Z,35
2017-01-02T08:32:07.266Z,35
2017-01-02T08:33:07.323Z,35
2017-01-02T08:34:07.379Z,35
2017-01-02T08:35:07.482Z,35
2017-01-02T08:36:07.477Z,35
2017-01-02T08:37:07.545Z,35
2017-01-02T08:38:07.601Z,40
2017-01-02T08:39:07.654Z,40
2017-01-02T08:40:07.721Z,40
2017-01-02T08:41:07.784Z,40
2017-01-02T08:42:07.830Z,40
2017-01-02T08:43:07.884Z,40
2017-01-02T08:44:07.942Z,40
2017-01-02T08:45:08.004Z,40
2017-01-02T08:46:08.048Z,40
2017-01-02T08:47:08.109Z,40
2017-01-02T08:48:08.166Z,40
2017-01-02T08:49:08.216Z,40
2017-01-02T08:50:08.336Z,45
2017-01-02T08:51:08.340Z,45
2017-01-02T08:52:08.378Z,45
2017-01-02T08:53:08.446Z,45
2017-01-02T08:54:08.497Z,45
2017-01-02T08:55:08.560Z,50
2017-01-02T08:56:08.631Z,45
2017-01-02T08:57:08.670Z,45
2017-01-02T08:58:08.724Z,45
2017-01-02T08:59:08.784Z,45
2017-01-02T09:00:09.238Z,45
2017-01-02T09:01:08.907Z,45
2017-01-02T09:02:08.962Z,45
2017-01-02T09:03:09.031Z,45
2017-01-02T09:04:09.475Z,50
2017-01-02T09:05:09.137Z,50
2017-01-02T09:06:09.201Z,50
2017-01-02T09:07:09.237Z,50
2017-01-02T09:08:09.306Z,50
2017-01-02T09:09:09.356Z,50
2017-01-02T09:10:09.408Z,50
2017-01-02T09:11:09.491Z,50
2017-01-02T09:12:09.531Z,55
2017-01-02T09:13:09.592Z,55
2017-01-02T09:14:09.652Z,55
2017-01-02T09:15:09.699Z,55
2017-01-02T09:16:09.767Z,55
2017-01-02T09:17:09.856Z,55
2017-01-02T09:18:09.880Z,60
2017-01-02T09:19:09.944Z,60
2017-01-02T09:20:10.000Z,60
2017-01-02T09:21:10.042Z,60
2017-01-02T09:22:10.116Z,65
2017-01-02T09:23:10.156Z,65
2017-01-02T09:24:10.227Z,65
2017-01-02T09:25:10.283Z,70
2017-01-02T09:26:10.333Z,75
2017-01-02T09:27:10.396Z,80
2017-01-02T09:28:10.456Z,90
2017-01-02T09:29:10.513Z,160
2017-01-02T09:30:10.575Z,465
2017-01-02T09:31:10.620Z,650
2017-01-02T09:32:10.689Z,660
2017-01-02T09:33:10.735Z,645
2017-01-02T09:34:10.790Z,630
2017-01-02T09:35:10.858Z,655
2017-01-02T09:36:10.922Z,695
2017-01-02T09:37:10.975Z,725
2017-01-02T09:38:11.024Z,740
2017-01-02T09:39:11.084Z,565
2017-01-02T09:40:11.140Z,360
2017-01-02T09:41:11.201Z,315
2017-01-02T09:42:11.256Z,300
2017-01-02T09:43:11.325Z,290
2017-01-02T09:44:11.357Z,285
2017-01-02T09:45:11.430Z,285
2017-01-02T09:46:11.545Z,295
2017-01-02T09:47:11.530Z,340
2017-01-02T09:48:11.603Z,580
2017-01-02T09:49:11.648Z,795
2017-01-02T09:50:11.706Z,780
2017-01-02T09:51:11.775Z,745
2017-01-02T09:52:11.826Z,730
2017-01-02T09:53:11.881Z,715
2017-01-02T09:54:11.947Z,745
2017-01-02T09:55:11.999Z,800
2017-01-02T09:56:12.048Z,765
2017-01-02T09:57:12.101Z,705
2017-01-02T09:58:12.172Z,715
2017-01-02T09:59:12.228Z,730
2017-01-02T10:00:12.289Z,775
2017-01-02T10:01:12.344Z,765
2017-01-02T10:02:12.387Z,705
2017-01-02T10:03:12.459Z,730
2017-01-02T10:04:12.499Z,725
2017-01-02T10:05:12.561Z,840
2017-01-02T10:06:12.619Z,875
2017-01-02T10:07:12.686Z,855
2017-01-02T10:08:12.748Z,850
2017-01-02T10:09:12.806Z,780
2017-01-02T10:10:12.868Z,845
2017-01-02T10:11:12.912Z,855
2017-01-02T10:12:12.973Z,795
2017-01-02T10:13:13.059Z,820
2017-01-02T10:14:13.085Z,905
2017-01-02T10:15:13.159Z,1170
2017-01-02T10:16:13.201Z,1480
2017-01-02T10:17:13.253Z,1250
2017-01-02T10:18:13.311Z,970
2017-01-02T10:19:13.372Z,850
2017-01-02T10:20:13.432Z,975
2017-01-02T10:21:13.501Z,1175
2017-01-02T10:22:13.603Z,1130
2017-01-02T10:23:13.603Z,1020
2017-01-02T10:24:13.692Z,950
2017-01-02T10:25:13.717Z,995
2017-01-02T10:26:13.771Z,1060
2017-01-02T10:27:13.834Z,1055
2017-01-02T10:28:13.898Z,775
2017-01-02T10:29:13.961Z,500
2017-01-02T10:30:14.012Z,450
2017-01-02T10:31:14.066Z,455
2017-01-02T10:32:14.121Z,490
2017-01-02T10:33:14.181Z,520
2017-01-02T10:34:14.229Z,600
2017-01-02T10:35:14.300Z,710
2017-01-02T10:36:14.350Z,735
2017-01-02T10:37:14.398Z,770
2017-01-02T10:38:14.461Z,780
2017-01-02T10:39:14.521Z,785
2017-01-02T10:40:14.565Z,875
2017-01-02T10:41:14.642Z,1005
2017-01-02T10:42:14.701Z,1130
2017-01-02T10:43:14.752Z,1255
2017-01-02T10:44:14.804Z,1080
2017-01-02T10:45:14.858Z,880
2017-01-02T10:46:14.921Z,825
2017-01-02T10:47:14.977Z,685
2017-01-02T10:48:15.033Z,540
2017-01-02T10:49:15.091Z,555
2017-01-02T10:50:15.151Z,590
2017-01-02T10:51:15.207Z,835
2017-01-02T10:52:15.271Z,1265
2017-01-02T10:53:15.330Z,1150
2017-01-02T10:54:15.382Z,775
2017-01-02T10:55:15.436Z,565
2017-01-02T10:56:15.498Z,560
2017-01-02T10:57:15.559Z,750
2017-01-02T10:58:15.615Z,990
2017-01-02T10:59:15.701Z,990
2017-01-02T11:00:15.726Z,850
2017-01-02T11:01:15.783Z,1085
2017-01-02T11:02:15.832Z,1095
2017-01-02T11:03:15.893Z,805
2017-01-02T11:04:15.957Z,600
2017-01-02T11:05:16.005Z,575
2017-01-02T11:06:16.074Z,540
2017-01-02T11:07:16.122Z,505
2017-01-02T11:08:16.180Z,485
2017-01-02T11:09:16.235Z,515
2017-01-02T11:10:16.294Z,515
2017-01-02T11:11:16.362Z,495
2017-01-02T11:12:16.415Z,840
2017-01-02T11:13:16.482Z,1065
2017-01-02T11:14:16.538Z,1010
2017-01-02T11:15:16.599Z,940
2017-01-02T11:16:16.647Z,670
2017-01-02T11:17:16.697Z,545
2017-01-02T11:18:16.774Z,635
2017-01-02T11:19:16.827Z,800
2017-01-02T11:20:17.262Z,810
2017-01-02T11:21:16.937Z,825
2017-01-02T11:22:16.997Z,825
2017-01-02T11:23:17.041Z,755
2017-01-02T11:24:17.496Z,555
2017-01-02T11:25:17.171Z,640
2017-01-02T11:26:17.429Z,605
2017-01-02T11:27:17.285Z,610
2017-01-02T11:28:17.392Z,625
2017-01-02T11:29:17.403Z,620
2017-01-02T11:30:17.447Z,570
2017-01-02T11:31:17.521Z,715
2017-01-02T11:32:17.572Z,785
2017-01-02T11:33:17.632Z,715
2017-01-02T11:34:17.685Z,705
2017-01-02T11:35:17.732Z,690
2017-01-02T11:36:17.797Z,735
2017-01-02T11:37:17.852Z,645
2017-01-02T11:38:17.920Z,660
2017-01-02T11:39:17.978Z,680
2017-01-02T11:40:18.033Z,660
2017-01-02T11:41:18.095Z,735
2017-01-02T11:42:18.144Z,570
2017-01-02T11:43:18.201Z,380
2017-01-02T11:44:18.258Z,395
2017-01-02T11:45:18.332Z,345
2017-01-02T11:46:18.376Z,335
2017-01-02T11:47:18.428Z,345
2017-01-02T11:48:18.492Z,380
2017-01-02T11:49:18.756Z,555
2017-01-02T11:50:18.621Z,845
2017-01-02T11:51:18.677Z,960
2017-01-02T11:52:18.943Z,1045
2017-01-02T11:53:18.995Z,1045
2017-01-02T11:54:18.848Z,1105
2017-01-02T11:55:18.904Z,950
2017-01-02T11:56:18.967Z,820
2017-01-02T11:57:19.026Z,585
2017-01-02T11:58:19.085Z,565
2017-01-02T11:59:19.137Z,585
2017-01-02T12:00:19.191Z,710
2017-01-02T12:01:19.253Z,985
2017-01-02T12:02:19.308Z,1170
2017-01-02T12:03:19.376Z,1105
2017-01-02T12:04:19.482Z,1025
2017-01-02T12:05:19.494Z,1010
2017-01-02T12:06:19.550Z,1015
2017-01-02T12:07:19.607Z,925
2017-01-02T12:08:19.667Z,825
2017-01-02T12:09:19.728Z,690
2017-01-02T12:10:19.784Z,565
2017-01-02T12:11:19.848Z,560
2017-01-02T12:12:19.899Z,460
2017-01-02T12:13:19.957Z,410
2017-01-02T12:14:20.158Z,355
2017-01-02T12:15:20.071Z,370
2017-01-02T12:16:20.134Z,310
2017-01-02T12:17:20.193Z,375
2017-01-02T12:18:20.259Z,545
2017-01-02T12:19:20.508Z,325
2017-01-02T12:20:20.558Z,425
2017-01-02T12:21:20.413Z,545
2017-01-02T12:22:20.470Z,565
2017-01-02T12:23:20.529Z,620
2017-01-02T12:24:20.597Z,615
2017-01-02T12:25:20.855Z,605
2017-01-02T12:26:20.717Z,700
2017-01-02T12:27:20.786Z,755
2017-01-02T12:28:20.829Z,690
2017-01-02T12:29:20.878Z,680
2017-01-02T12:30:20.939Z,745
2017-01-02T12:31:21.005Z,810
2017-01-02T12:32:21.048Z,795
2017-01-02T12:33:21.114Z,790
2017-01-02T12:34:21.181Z,735
2017-01-02T12:35:21.235Z,735
2017-01-02T12:36:21.274Z,685
2017-01-02T12:37:21.337Z,670
2017-01-02T12:38:21.387Z,680
2017-01-02T12:39:21.490Z,725
2017-01-02T12:40:21.509Z,535
2017-01-02T12:41:21.577Z,490
2017-01-02T12:42:21.615Z,390
2017-01-02T12:43:21.688Z,315
2017-01-02T12:44:21.748Z,265
2017-01-02T12:45:21.792Z,210
2017-01-02T12:46:22.063Z,190
2017-01-02T12:47:22.113Z,180
2017-01-02T12:48:21.964Z,195
2017-01-02T12:49:22.029Z,200
2017-01-02T12:50:22.096Z,155
2017-01-02T12:51:22.142Z,170
2017-01-02T12:52:22.186Z,170
2017-01-02T12:53:22.251Z,140
2017-01-02T12:54:22.309Z,155
2017-01-02T12:55:22.377Z,165
2017-01-02T12:56:22.431Z,190
2017-01-02T12:57:22.490Z,270
2017-01-02T12:58:22.542Z,345
2017-01-02T12:59:22.611Z,355
2017-01-02T13:00:22.654Z,430
2017-01-02T13:01:22.708Z,475
2017-01-02T13:02:22.776Z,380
2017-01-02T13:03:22.835Z,340
2017-01-02T13:04:22.890Z,320
2017-01-02T13:05:22.942Z,165
2017-01-02T13:06:22.996Z,165
2017-01-02T13:07:23.051Z,140
2017-01-02T13:08:23.118Z,155
2017-01-02T13:09:23.171Z,140
2017-01-02T13:10:23.240Z,145
2017-01-02T13:11:23.289Z,150
2017-01-02T13:12:23.345Z,140
2017-01-02T13:13:23.394Z,175
2017-01-02T13:14:23.446Z,220
2017-01-02T13:15:23.526Z,485
2017-01-02T13:16:23.571Z,545
2017-01-02T13:17:23.632Z,390
2017-01-02T13:18:23.688Z,140
2017-01-02T13:19:23.773Z,90
2017-01-02T13:20:23.797Z,75
2017-01-02T13:21:23.861Z,70
2017-01-02T13:22:23.914Z,65
2017-01-02T13:23:23.979Z,60
2017-01-02T13:24:24.031Z,55
2017-01-02T13:25:24.087Z,50
2017-01-02T13:26:24.140Z,45
2017-01-02T13:27:24.204Z,40
2017-01-02T13:28:24.265Z,40
2017-01-02T13:29:24.313Z,40
2017-01-02T13:30:24.371Z,35
2017-01-02T13:31:24.440Z,35
2017-01-02T13:32:24.497Z,30
2017-01-02T13:33:24.544Z,30
2017-01-02T13:34:24.617Z,30
2017-01-02T13:35:24.661Z,30
2017-01-02T13:36:24.723Z,30
2017-01-02T13:37:24.791Z,30
2017-01-02T13:38:24.837Z,25
2017-01-02T13:39:24.901Z,25
2017-01-02T13:40:24.949Z,25
2017-01-02T13:41:25.007Z,25
2017-01-02T13:42:25.063Z,25
2017-01-02T13:43:25.128Z,30
2017-01-02T13:44:25.180Z,30
2017-01-02T13:45:25.268Z,30
2017-01-02T13:46:25.290Z,35
2017-01-02T13:47:25.368Z,40
2017-01-02T13:48:25.406Z,40
2017-01-02T13:49:25.472Z,45
2017-01-02T13:50:25.910Z,45
2017-01-02T13:51:25.595Z,45
2017-01-02T13:52:25.648Z,45
2017-01-02T13:53:25.703Z,45
2017-01-02T13:54:25.755Z,40
2017-01-02T13:55:25.817Z,40
2017-01-02T13:56:25.876Z,40
2017-01-02T13:57:25.919Z,40
2017-01-02T13:58:25.998Z,45
2017-01-02T13:59:26.082Z,40
2017-01-02T14:00:26.100Z,40
2017-01-02T14:01:26.159Z,35
2017-01-02T14:02:26.214Z,35
2017-01-02T14:03:26.277Z,35
2017-01-02T14:04:26.341Z,35
2017-01-02T14:05:26.383Z,30
2017-01-02T14:06:26.451Z,30
2017-01-02T14:07:26.608Z,35
2017-01-02T14:08:26.563Z,30
2017-01-02T14:09:26.611Z,35
2017-01-02T14:10:26.672Z,55
2017-01-02T14:11:26.736Z,50
2017-01-02T14:12:26.790Z,45
2017-01-02T14:13:26.857Z,45
2017-01-02T14:14:26.900Z,45
2017-01-02T14:15:26.986Z,40
2017-01-02T14:16:27.032Z,40
2017-01-02T14:17:27.073Z,45
2017-01-02T14:18:27.143Z,45
2017-01-02T14:19:27.187Z,45
2017-01-02T14:20:27.643Z,45
2017-01-02T14:21:27.307Z,45
2017-01-02T14:22:27.374Z,45
2017-01-02T14:23:27.423Z,45